sensor_id;sensor_type;location;lat;lon;timestamp;P1;durP1;ratioP1;P2;durP2;ratioP2
6420;SDS011;3243;50.958;7.012;2022-10-22T00:01:10;9.33;;;5.50;;
6420;SDS011;3243;50.958;7.012;2022-10-22T00:03:36;12.40;;;5.60;;
6420;SDS011;3243;50.958;7.012;2022-10-22T00:06:03;11.00;;;5.23;;
6420;SDS011;3243;50.958;7.012;2022-10-22T00:08:30;9.03;;;4.93;;
6420;SDS011;3243;50.958;7.012;2022-10-22T00:10:57;8.37;;;5.20;;
6420;SDS011;3243;50.958;7.012;2022-10-22T00:13:24;11.33;;;5.80;;
6420;SDS011;3243;50.958;7.012;2022-10-22T00:15:50;8.63;;;5.33;;
6420;SDS011;3243;50.958;7.012;2022-10-22T00:18:17;17.50;;;6.33;;
6420;SDS011;3243;50.958;7.012;2022-10-22T00:20:44;9.03;;;4.90;;
6420;SDS011;3243;50.958;7.012;2022-10-22T00:23:10;15.73;;;4.90;;
6420;SDS011;3243;50.958;7.012;2022-10-22T00:25:37;9.67;;;5.07;;
6420;SDS011;3243;50.958;7.012;2022-10-22T00:28:04;7.60;;;5.07;;
6420;SDS011;3243;50.958;7.012;2022-10-22T00:30:30;8.20;;;4.77;;
6420;SDS011;3243;50.958;7.012;2022-10-22T00:32:57;6.77;;;4.77;;
6420;SDS011;3243;50.958;7.012;2022-10-22T00:35:24;8.93;;;4.40;;
6420;SDS011;3243;50.958;7.012;2022-10-22T00:37:50;8.13;;;4.40;;
6420;SDS011;3243;50.958;7.012;2022-10-22T00:40:17;12.50;;;5.17;;
6420;SDS011;3243;50.958;7.012;2022-10-22T00:42:44;8.33;;;4.73;;
6420;SDS011;3243;50.958;7.012;2022-10-22T00:47:39;10.77;;;4.50;;
6420;SDS011;3243;50.958;7.012;2022-10-22T00:53:09;10.30;;;6.10;;
6420;SDS011;3243;50.958;7.012;2022-10-22T00:55:40;14.00;;;8.27;;
6420;SDS011;3243;50.958;7.012;2022-10-22T00:58:08;8.37;;;5.07;;
6420;SDS011;3243;50.958;7.012;2022-10-22T01:00:37;6.73;;;5.00;;
6420;SDS011;3243;50.958;7.012;2022-10-22T01:03:04;8.27;;;5.17;;
6420;SDS011;3243;50.958;7.012;2022-10-22T01:05:38;9.10;;;4.70;;
6420;SDS011;3243;50.958;7.012;2022-10-22T01:08:24;6.70;;;4.30;;
6420;SDS011;3243;50.958;7.012;2022-10-22T01:16:31;10.33;;;5.30;;
6420;SDS011;3243;50.958;7.012;2022-10-22T01:22:52;11.60;;;5.03;;
6420;SDS011;3243;50.958;7.012;2022-10-22T01:30:17;8.60;;;5.20;;
6420;SDS011;3243;50.958;7.012;2022-10-22T01:32:47;10.87;;;5.57;;
6420;SDS011;3243;50.958;7.012;2022-10-22T01:35:18;6.87;;;4.73;;
6420;SDS011;3243;50.958;7.012;2022-10-22T01:37:51;8.10;;;5.37;;
6420;SDS011;3243;50.958;7.012;2022-10-22T01:40:24;10.90;;;4.63;;
6420;SDS011;3243;50.958;7.012;2022-10-22T01:42:59;8.80;;;5.33;;
6420;SDS011;3243;50.958;7.012;2022-10-22T01:45:28;10.03;;;5.03;;
6420;SDS011;3243;50.958;7.012;2022-10-22T02:06:25;9.77;;;5.60;;
6420;SDS011;3243;50.958;7.012;2022-10-22T02:08:54;14.03;;;5.00;;
6420;SDS011;3243;50.958;7.012;2022-10-22T02:11:22;11.67;;;5.20;;
6420;SDS011;3243;50.958;7.012;2022-10-22T02:13:52;13.80;;;6.00;;
6420;SDS011;3243;50.958;7.012;2022-10-22T02:16:25;6.93;;;4.70;;
6420;SDS011;3243;50.958;7.012;2022-10-22T02:18:55;11.07;;;5.30;;
6420;SDS011;3243;50.958;7.012;2022-10-22T02:21:25;9.50;;;5.60;;
6420;SDS011;3243;50.958;7.012;2022-10-22T02:23:53;13.30;;;5.63;;
6420;SDS011;3243;50.958;7.012;2022-10-22T02:31:32;6.37;;;4.80;;
6420;SDS011;3243;50.958;7.012;2022-10-22T02:34:04;17.33;;;6.17;;
6420;SDS011;3243;50.958;7.012;2022-10-22T02:36:36;9.87;;;5.40;;
6420;SDS011;3243;50.958;7.012;2022-10-22T02:39:04;11.87;;;6.13;;
6420;SDS011;3243;50.958;7.012;2022-10-22T02:41:33;12.67;;;6.17;;
6420;SDS011;3243;50.958;7.012;2022-10-22T02:44:00;9.57;;;6.23;;
6420;SDS011;3243;50.958;7.012;2022-10-22T02:46:28;10.97;;;6.90;;
6420;SDS011;3243;50.958;7.012;2022-10-22T02:48:54;6.97;;;4.83;;
6420;SDS011;3243;50.958;7.012;2022-10-22T02:51:21;11.97;;;5.70;;
6420;SDS011;3243;50.958;7.012;2022-10-22T02:53:48;10.70;;;5.77;;
6420;SDS011;3243;50.958;7.012;2022-10-22T02:56:14;8.23;;;5.83;;
6420;SDS011;3243;50.958;7.012;2022-10-22T02:58:41;10.40;;;5.60;;
6420;SDS011;3243;50.958;7.012;2022-10-22T03:01:08;11.70;;;6.90;;
6420;SDS011;3243;50.958;7.012;2022-10-22T03:03:40;8.57;;;5.33;;
6420;SDS011;3243;50.958;7.012;2022-10-22T03:06:07;6.60;;;5.50;;
6420;SDS011;3243;50.958;7.012;2022-10-22T03:08:34;11.23;;;5.73;;
6420;SDS011;3243;50.958;7.012;2022-10-22T03:11:00;10.23;;;5.47;;
6420;SDS011;3243;50.958;7.012;2022-10-22T03:13:27;9.10;;;5.20;;
6420;SDS011;3243;50.958;7.012;2022-10-22T03:15:54;7.93;;;5.40;;
6420;SDS011;3243;50.958;7.012;2022-10-22T03:18:21;8.57;;;5.03;;
6420;SDS011;3243;50.958;7.012;2022-10-22T03:20:47;7.77;;;5.60;;
6420;SDS011;3243;50.958;7.012;2022-10-22T03:23:15;11.83;;;6.10;;
6420;SDS011;3243;50.958;7.012;2022-10-22T03:25:44;13.20;;;6.43;;
6420;SDS011;3243;50.958;7.012;2022-10-22T03:28:13;8.90;;;5.40;;
6420;SDS011;3243;50.958;7.012;2022-10-22T03:30:42;16.13;;;6.30;;
6420;SDS011;3243;50.958;7.012;2022-10-22T03:33:09;8.90;;;6.00;;
6420;SDS011;3243;50.958;7.012;2022-10-22T03:35:38;16.97;;;5.70;;
6420;SDS011;3243;50.958;7.012;2022-10-22T03:38:09;9.07;;;5.40;;
6420;SDS011;3243;50.958;7.012;2022-10-22T03:40:36;13.13;;;5.83;;
6420;SDS011;3243;50.958;7.012;2022-10-22T03:43:03;12.17;;;5.17;;
6420;SDS011;3243;50.958;7.012;2022-10-22T03:45:30;8.60;;;5.70;;
6420;SDS011;3243;50.958;7.012;2022-10-22T03:47:56;6.73;;;4.97;;
6420;SDS011;3243;50.958;7.012;2022-10-22T03:50:23;10.40;;;5.67;;
6420;SDS011;3243;50.958;7.012;2022-10-22T03:52:50;11.00;;;5.87;;
6420;SDS011;3243;50.958;7.012;2022-10-22T03:55:18;6.80;;;5.13;;
6420;SDS011;3243;50.958;7.012;2022-10-22T03:57:44;12.63;;;5.87;;
6420;SDS011;3243;50.958;7.012;2022-10-22T04:00:11;12.57;;;5.63;;
6420;SDS011;3243;50.958;7.012;2022-10-22T04:02:38;10.53;;;6.20;;
6420;SDS011;3243;50.958;7.012;2022-10-22T04:05:05;8.83;;;5.27;;
6420;SDS011;3243;50.958;7.012;2022-10-22T04:07:32;11.00;;;6.80;;
6420;SDS011;3243;50.958;7.012;2022-10-22T04:09:59;9.00;;;6.50;;
6420;SDS011;3243;50.958;7.012;2022-10-22T04:12:26;12.83;;;6.30;;
6420;SDS011;3243;50.958;7.012;2022-10-22T04:14:52;8.87;;;7.43;;
6420;SDS011;3243;50.958;7.012;2022-10-22T04:17:19;12.40;;;7.37;;
6420;SDS011;3243;50.958;7.012;2022-10-22T04:19:46;9.83;;;6.57;;
6420;SDS011;3243;50.958;7.012;2022-10-22T04:22:12;11.17;;;7.03;;
6420;SDS011;3243;50.958;7.012;2022-10-22T04:24:39;14.00;;;8.13;;
6420;SDS011;3243;50.958;7.012;2022-10-22T04:27:06;14.93;;;7.53;;
6420;SDS011;3243;50.958;7.012;2022-10-22T04:29:32;11.97;;;7.37;;
6420;SDS011;3243;50.958;7.012;2022-10-22T04:31:59;8.60;;;6.13;;
6420;SDS011;3243;50.958;7.012;2022-10-22T04:34:26;8.73;;;6.10;;
6420;SDS011;3243;50.958;7.012;2022-10-22T04:36:54;10.77;;;6.23;;
6420;SDS011;3243;50.958;7.012;2022-10-22T04:39:21;9.90;;;7.90;;
6420;SDS011;3243;50.958;7.012;2022-10-22T04:41:47;10.07;;;6.43;;
6420;SDS011;3243;50.958;7.012;2022-10-22T04:44:14;10.77;;;5.90;;
6420;SDS011;3243;50.958;7.012;2022-10-22T04:46:43;10.13;;;7.83;;
6420;SDS011;3243;50.958;7.012;2022-10-22T04:49:10;13.63;;;7.03;;
6420;SDS011;3243;50.958;7.012;2022-10-22T04:51:37;8.87;;;6.83;;
6420;SDS011;3243;50.958;7.012;2022-10-22T04:54:03;12.20;;;6.70;;
6420;SDS011;3243;50.958;7.012;2022-10-22T04:56:31;9.13;;;6.63;;
6420;SDS011;3243;50.958;7.012;2022-10-22T04:58:58;14.57;;;7.77;;
6420;SDS011;3243;50.958;7.012;2022-10-22T05:01:28;10.13;;;6.40;;
6420;SDS011;3243;50.958;7.012;2022-10-22T05:04:09;11.07;;;6.97;;
6420;SDS011;3243;50.958;7.012;2022-10-22T05:06:37;12.50;;;7.10;;
6420;SDS011;3243;50.958;7.012;2022-10-22T05:09:09;11.63;;;8.27;;
6420;SDS011;3243;50.958;7.012;2022-10-22T05:11:38;10.27;;;6.73;;
6420;SDS011;3243;50.958;7.012;2022-10-22T05:14:07;12.47;;;7.50;;
6420;SDS011;3243;50.958;7.012;2022-10-22T05:16:34;10.93;;;7.03;;
6420;SDS011;3243;50.958;7.012;2022-10-22T05:19:03;11.47;;;6.87;;
6420;SDS011;3243;50.958;7.012;2022-10-22T05:21:30;12.73;;;7.30;;
6420;SDS011;3243;50.958;7.012;2022-10-22T05:23:57;11.57;;;6.73;;
6420;SDS011;3243;50.958;7.012;2022-10-22T05:26:27;9.83;;;6.97;;
6420;SDS011;3243;50.958;7.012;2022-10-22T05:28:54;15.13;;;7.30;;
6420;SDS011;3243;50.958;7.012;2022-10-22T05:31:21;9.93;;;6.20;;
6420;SDS011;3243;50.958;7.012;2022-10-22T05:33:48;13.03;;;7.20;;
6420;SDS011;3243;50.958;7.012;2022-10-22T05:36:17;9.60;;;7.27;;
6420;SDS011;3243;50.958;7.012;2022-10-22T05:38:45;14.70;;;6.97;;
6420;SDS011;3243;50.958;7.012;2022-10-22T05:41:13;7.93;;;6.37;;
6420;SDS011;3243;50.958;7.012;2022-10-22T05:43:44;9.67;;;6.60;;
6420;SDS011;3243;50.958;7.012;2022-10-22T05:46:12;10.77;;;5.97;;
6420;SDS011;3243;50.958;7.012;2022-10-22T05:48:50;12.40;;;7.20;;
6420;SDS011;3243;50.958;7.012;2022-10-22T05:51:21;13.23;;;7.70;;
6420;SDS011;3243;50.958;7.012;2022-10-22T05:53:50;12.27;;;8.30;;
6420;SDS011;3243;50.958;7.012;2022-10-22T05:56:22;9.00;;;6.77;;
6420;SDS011;3243;50.958;7.012;2022-10-22T05:58:50;11.57;;;7.40;;
6420;SDS011;3243;50.958;7.012;2022-10-22T06:01:24;10.10;;;7.53;;
6420;SDS011;3243;50.958;7.012;2022-10-22T06:03:53;10.40;;;6.30;;
6420;SDS011;3243;50.958;7.012;2022-10-22T06:06:25;11.93;;;7.40;;
6420;SDS011;3243;50.958;7.012;2022-10-22T06:11:47;10.83;;;7.63;;
6420;SDS011;3243;50.958;7.012;2022-10-22T06:14:14;11.93;;;8.07;;
6420;SDS011;3243;50.958;7.012;2022-10-22T06:16:41;13.63;;;7.10;;
6420;SDS011;3243;50.958;7.012;2022-10-22T06:19:09;12.37;;;6.63;;
6420;SDS011;3243;50.958;7.012;2022-10-22T06:21:37;8.13;;;6.63;;
6420;SDS011;3243;50.958;7.012;2022-10-22T06:24:04;11.20;;;7.27;;
6420;SDS011;3243;50.958;7.012;2022-10-22T06:26:31;14.00;;;7.50;;
6420;SDS011;3243;50.958;7.012;2022-10-22T06:28:58;20.03;;;10.67;;
6420;SDS011;3243;50.958;7.012;2022-10-22T06:31:26;10.13;;;8.20;;
6420;SDS011;3243;50.958;7.012;2022-10-22T06:33:54;13.70;;;7.60;;
6420;SDS011;3243;50.958;7.012;2022-10-22T06:36:22;10.17;;;7.70;;
6420;SDS011;3243;50.958;7.012;2022-10-22T06:38:52;10.00;;;7.77;;
6420;SDS011;3243;50.958;7.012;2022-10-22T06:41:20;15.90;;;8.50;;
6420;SDS011;3243;50.958;7.012;2022-10-22T06:43:53;12.13;;;8.00;;
6420;SDS011;3243;50.958;7.012;2022-10-22T06:46:22;15.03;;;8.67;;
6420;SDS011;3243;50.958;7.012;2022-10-22T06:48:53;13.97;;;8.17;;
6420;SDS011;3243;50.958;7.012;2022-10-22T06:51:28;11.97;;;8.70;;
6420;SDS011;3243;50.958;7.012;2022-10-22T06:53:55;8.93;;;7.17;;
6420;SDS011;3243;50.958;7.012;2022-10-22T06:56:23;15.33;;;7.93;;
6420;SDS011;3243;50.958;7.012;2022-10-22T06:58:52;11.10;;;7.53;;
6420;SDS011;3243;50.958;7.012;2022-10-22T07:01:21;9.47;;;7.23;;
6420;SDS011;3243;50.958;7.012;2022-10-22T07:03:50;10.60;;;8.17;;
6420;SDS011;3243;50.958;7.012;2022-10-22T07:06:17;12.80;;;8.07;;
6420;SDS011;3243;50.958;7.012;2022-10-22T07:08:45;12.90;;;7.30;;
6420;SDS011;3243;50.958;7.012;2022-10-22T07:11:13;14.63;;;7.87;;
6420;SDS011;3243;50.958;7.012;2022-10-22T07:13:43;11.77;;;8.07;;
6420;SDS011;3243;50.958;7.012;2022-10-22T07:16:10;17.57;;;8.93;;
6420;SDS011;3243;50.958;7.012;2022-10-22T07:18:37;11.17;;;8.00;;
6420;SDS011;3243;50.958;7.012;2022-10-22T07:21:05;15.87;;;9.10;;
6420;SDS011;3243;50.958;7.012;2022-10-22T07:23:33;10.60;;;7.90;;
6420;SDS011;3243;50.958;7.012;2022-10-22T07:26:00;11.53;;;7.90;;
6420;SDS011;3243;50.958;7.012;2022-10-22T07:28:28;17.63;;;9.47;;
6420;SDS011;3243;50.958;7.012;2022-10-22T07:30:55;14.47;;;7.80;;
6420;SDS011;3243;50.958;7.012;2022-10-22T07:33:22;11.97;;;8.07;;
6420;SDS011;3243;50.958;7.012;2022-10-22T07:35:49;12.03;;;8.20;;
6420;SDS011;3243;50.958;7.012;2022-10-22T07:38:15;13.93;;;8.27;;
6420;SDS011;3243;50.958;7.012;2022-10-22T07:40:42;14.80;;;8.77;;
6420;SDS011;3243;50.958;7.012;2022-10-22T07:43:09;11.07;;;7.87;;
6420;SDS011;3243;50.958;7.012;2022-10-22T07:45:35;12.07;;;8.47;;
6420;SDS011;3243;50.958;7.012;2022-10-22T07:48:02;13.07;;;8.53;;
6420;SDS011;3243;50.958;7.012;2022-10-22T07:50:29;11.97;;;7.93;;
6420;SDS011;3243;50.958;7.012;2022-10-22T07:52:56;10.77;;;7.30;;
6420;SDS011;3243;50.958;7.012;2022-10-22T07:55:23;11.97;;;6.53;;
6420;SDS011;3243;50.958;7.012;2022-10-22T07:57:50;11.90;;;7.13;;
6420;SDS011;3243;50.958;7.012;2022-10-22T08:00:17;13.50;;;6.50;;
6420;SDS011;3243;50.958;7.012;2022-10-22T08:02:49;11.20;;;6.60;;
6420;SDS011;3243;50.958;7.012;2022-10-22T08:05:16;9.10;;;4.70;;
6420;SDS011;3243;50.958;7.012;2022-10-22T08:07:43;12.40;;;4.90;;
6420;SDS011;3243;50.958;7.012;2022-10-22T08:10:10;10.50;;;4.60;;
6420;SDS011;3243;50.958;7.012;2022-10-22T08:12:37;9.97;;;4.60;;
6420;SDS011;3243;50.958;7.012;2022-10-22T08:15:05;12.80;;;4.03;;
6420;SDS011;3243;50.958;7.012;2022-10-22T08:17:33;8.90;;;4.23;;
6420;SDS011;3243;50.958;7.012;2022-10-22T08:19:59;4.83;;;3.40;;
6420;SDS011;3243;50.958;7.012;2022-10-22T08:22:26;10.70;;;3.97;;
6420;SDS011;3243;50.958;7.012;2022-10-22T08:24:53;8.83;;;3.27;;
6420;SDS011;3243;50.958;7.012;2022-10-22T08:27:20;11.50;;;3.87;;
6420;SDS011;3243;50.958;7.012;2022-10-22T08:29:46;5.80;;;2.77;;
6420;SDS011;3243;50.958;7.012;2022-10-22T08:32:13;10.00;;;3.10;;
6420;SDS011;3243;50.958;7.012;2022-10-22T08:34:40;9.93;;;3.47;;
6420;SDS011;3243;50.958;7.012;2022-10-22T08:37:07;8.17;;;3.20;;
6420;SDS011;3243;50.958;7.012;2022-10-22T08:39:35;9.30;;;3.50;;
6420;SDS011;3243;50.958;7.012;2022-10-22T08:50:10;7.87;;;3.50;;
6420;SDS011;3243;50.958;7.012;2022-10-22T08:52:41;7.37;;;3.43;;
6420;SDS011;3243;50.958;7.012;2022-10-22T08:55:14;6.57;;;3.23;;
6420;SDS011;3243;50.958;7.012;2022-10-22T09:00:33;6.23;;;2.60;;
6420;SDS011;3243;50.958;7.012;2022-10-22T09:06:17;6.63;;;2.73;;
6420;SDS011;3243;50.958;7.012;2022-10-22T09:08:45;7.53;;;2.90;;
6420;SDS011;3243;50.958;7.012;2022-10-22T09:11:15;10.37;;;2.60;;
6420;SDS011;3243;50.958;7.012;2022-10-22T09:13:43;4.70;;;2.70;;
6420;SDS011;3243;50.958;7.012;2022-10-22T09:16:15;11.27;;;2.83;;
6420;SDS011;3243;50.958;7.012;2022-10-22T09:18:52;6.00;;;2.47;;
6420;SDS011;3243;50.958;7.012;2022-10-22T09:27:00;5.80;;;2.33;;
6420;SDS011;3243;50.958;7.012;2022-10-22T09:29:31;11.13;;;3.70;;
6420;SDS011;3243;50.958;7.012;2022-10-22T09:31:58;9.53;;;2.67;;
6420;SDS011;3243;50.958;7.012;2022-10-22T09:34:25;8.43;;;3.00;;
6420;SDS011;3243;50.958;7.012;2022-10-22T09:37:03;8.00;;;3.10;;
6420;SDS011;3243;50.958;7.012;2022-10-22T09:39:42;7.23;;;2.50;;
6420;SDS011;3243;50.958;7.012;2022-10-22T09:42:14;6.50;;;2.60;;
6420;SDS011;3243;50.958;7.012;2022-10-22T09:44:42;8.47;;;2.50;;
6420;SDS011;3243;50.958;7.012;2022-10-22T09:47:36;6.87;;;2.83;;
6420;SDS011;3243;50.958;7.012;2022-10-22T09:55:40;7.47;;;3.67;;
6420;SDS011;3243;50.958;7.012;2022-10-22T09:58:11;9.33;;;3.90;;
6420;SDS011;3243;50.958;7.012;2022-10-22T10:00:40;8.97;;;3.37;;
6420;SDS011;3243;50.958;7.012;2022-10-22T10:03:14;10.03;;;2.80;;
6420;SDS011;3243;50.958;7.012;2022-10-22T10:05:47;6.93;;;2.50;;
6420;SDS011;3243;50.958;7.012;2022-10-22T10:08:17;8.67;;;2.97;;
6420;SDS011;3243;50.958;7.012;2022-10-22T10:16:14;9.30;;;2.60;;
6420;SDS011;3243;50.958;7.012;2022-10-22T10:24:41;6.00;;;2.27;;
6420;SDS011;3243;50.958;7.012;2022-10-22T10:27:21;9.67;;;3.60;;
6420;SDS011;3243;50.958;7.012;2022-10-22T10:30:00;9.80;;;3.23;;
6420;SDS011;3243;50.958;7.012;2022-10-22T10:32:54;10.47;;;2.90;;
6420;SDS011;3243;50.958;7.012;2022-10-22T10:36:07;7.37;;;2.80;;
6420;SDS011;3243;50.958;7.012;2022-10-22T10:39:12;7.73;;;3.80;;
6420;SDS011;3243;50.958;7.012;2022-10-22T10:50:03;13.53;;;3.77;;
6420;SDS011;3243;50.958;7.012;2022-10-22T10:56:00;5.40;;;2.33;;
6420;SDS011;3243;50.958;7.012;2022-10-22T11:04:22;8.03;;;2.00;;
6420;SDS011;3243;50.958;7.012;2022-10-22T11:06:57;3.70;;;1.70;;
6420;SDS011;3243;50.958;7.012;2022-10-22T11:09:38;4.73;;;2.27;;
6420;SDS011;3243;50.958;7.012;2022-10-22T11:12:35;10.97;;;3.43;;
6420;SDS011;3243;50.958;7.012;2022-10-22T11:17:53;4.83;;;1.73;;
6420;SDS011;3243;50.958;7.012;2022-10-22T11:20:53;11.07;;;2.13;;
6420;SDS011;3243;50.958;7.012;2022-10-22T11:27:01;8.10;;;1.87;;
6420;SDS011;3243;50.958;7.012;2022-10-22T11:29:18;7.90;;;2.47;;
6420;SDS011;3243;50.958;7.012;2022-10-22T11:31:48;6.87;;;2.00;;
6420;SDS011;3243;50.958;7.012;2022-10-22T11:34:19;6.07;;;2.00;;
6420;SDS011;3243;50.958;7.012;2022-10-22T11:37:04;3.93;;;1.60;;
6420;SDS011;3243;50.958;7.012;2022-10-22T11:42:35;4.40;;;1.53;;
6420;SDS011;3243;50.958;7.012;2022-10-22T11:45:06;8.23;;;1.40;;
6420;SDS011;3243;50.958;7.012;2022-10-22T11:50:48;9.20;;;1.80;;
6420;SDS011;3243;50.958;7.012;2022-10-22T11:53:17;7.93;;;1.90;;
6420;SDS011;3243;50.958;7.012;2022-10-22T11:55:47;7.77;;;2.00;;
6420;SDS011;3243;50.958;7.012;2022-10-22T12:03:42;6.77;;;1.80;;
6420;SDS011;3243;50.958;7.012;2022-10-22T12:08:45;6.97;;;2.10;;
6420;SDS011;3243;50.958;7.012;2022-10-22T12:11:23;5.73;;;2.33;;
6420;SDS011;3243;50.958;7.012;2022-10-22T12:16:54;13.67;;;4.07;;
6420;SDS011;3243;50.958;7.012;2022-10-22T12:24:34;4.33;;;1.50;;
6420;SDS011;3243;50.958;7.012;2022-10-22T12:27:03;3.40;;;1.50;;
6420;SDS011;3243;50.958;7.012;2022-10-22T12:29:42;6.60;;;1.90;;
6420;SDS011;3243;50.958;7.012;2022-10-22T12:32:09;8.63;;;1.80;;
6420;SDS011;3243;50.958;7.012;2022-10-22T12:34:44;3.63;;;1.67;;
6420;SDS011;3243;50.958;7.012;2022-10-22T12:37:13;5.77;;;1.60;;
6420;SDS011;3243;50.958;7.012;2022-10-22T12:39:41;5.43;;;1.97;;
6420;SDS011;3243;50.958;7.012;2022-10-22T12:42:12;5.63;;;1.77;;
6420;SDS011;3243;50.958;7.012;2022-10-22T12:44:44;8.23;;;1.90;;
6420;SDS011;3243;50.958;7.012;2022-10-22T12:47:14;5.37;;;2.60;;
6420;SDS011;3243;50.958;7.012;2022-10-22T12:49:44;3.20;;;1.70;;
6420;SDS011;3243;50.958;7.012;2022-10-22T12:52:15;4.90;;;1.73;;
6420;SDS011;3243;50.958;7.012;2022-10-22T12:54:48;8.67;;;2.47;;
6420;SDS011;3243;50.958;7.012;2022-10-22T12:57:20;7.50;;;1.67;;
6420;SDS011;3243;50.958;7.012;2022-10-22T12:59:47;9.43;;;2.27;;
6420;SDS011;3243;50.958;7.012;2022-10-22T13:02:23;7.00;;;1.97;;
6420;SDS011;3243;50.958;7.012;2022-10-22T13:08:04;9.30;;;1.70;;
6420;SDS011;3243;50.958;7.012;2022-10-22T13:10:37;6.07;;;2.30;;
6420;SDS011;3243;50.958;7.012;2022-10-22T13:13:06;4.60;;;1.93;;
6420;SDS011;3243;50.958;7.012;2022-10-22T13:15:53;4.97;;;2.07;;
6420;SDS011;3243;50.958;7.012;2022-10-22T13:18:22;7.20;;;1.80;;
6420;SDS011;3243;50.958;7.012;2022-10-22T13:20:54;6.50;;;2.63;;
6420;SDS011;3243;50.958;7.012;2022-10-22T13:23:29;7.83;;;2.63;;
6420;SDS011;3243;50.958;7.012;2022-10-22T13:26:13;7.33;;;2.10;;
6420;SDS011;3243;50.958;7.012;2022-10-22T13:28:48;10.23;;;2.70;;
6420;SDS011;3243;50.958;7.012;2022-10-22T13:31:23;6.30;;;1.73;;
6420;SDS011;3243;50.958;7.012;2022-10-22T13:33:59;7.47;;;2.10;;
6420;SDS011;3243;50.958;7.012;2022-10-22T13:36:36;4.10;;;1.57;;
6420;SDS011;3243;50.958;7.012;2022-10-22T13:39:05;5.43;;;1.93;;
6420;SDS011;3243;50.958;7.012;2022-10-22T13:41:37;6.10;;;1.90;;
6420;SDS011;3243;50.958;7.012;2022-10-22T13:44:05;8.27;;;1.70;;
6420;SDS011;3243;50.958;7.012;2022-10-22T13:46:31;4.43;;;2.00;;
6420;SDS011;3243;50.958;7.012;2022-10-22T13:49:01;3.23;;;2.00;;
6420;SDS011;3243;50.958;7.012;2022-10-22T13:51:33;5.20;;;2.37;;
6420;SDS011;3243;50.958;7.012;2022-10-22T13:54:00;3.43;;;1.60;;
6420;SDS011;3243;50.958;7.012;2022-10-22T13:56:29;3.50;;;1.40;;
6420;SDS011;3243;50.958;7.012;2022-10-22T13:58:55;4.27;;;1.93;;
6420;SDS011;3243;50.958;7.012;2022-10-22T14:01:23;5.57;;;2.73;;
6420;SDS011;3243;50.958;7.012;2022-10-22T14:03:52;3.23;;;1.70;;
6420;SDS011;3243;50.958;7.012;2022-10-22T14:06:23;3.10;;;1.67;;
6420;SDS011;3243;50.958;7.012;2022-10-22T14:08:55;5.10;;;1.60;;
6420;SDS011;3243;50.958;7.012;2022-10-22T14:11:24;3.57;;;1.37;;
6420;SDS011;3243;50.958;7.012;2022-10-22T14:13:56;5.27;;;1.50;;
6420;SDS011;3243;50.958;7.012;2022-10-22T14:16:23;3.65;;;1.40;;
6420;SDS011;3243;50.958;7.012;2022-10-22T14:18:53;3.20;;;1.50;;
6420;SDS011;3243;50.958;7.012;2022-10-22T14:21:21;4.75;;;1.50;;
6420;SDS011;3243;50.958;7.012;2022-10-22T14:23:48;4.10;;;1.73;;
6420;SDS011;3243;50.958;7.012;2022-10-22T14:26:27;4.10;;;1.70;;
6420;SDS011;3243;50.958;7.012;2022-10-22T14:28:56;4.43;;;2.00;;
6420;SDS011;3243;50.958;7.012;2022-10-22T14:31:39;4.23;;;1.63;;
6420;SDS011;3243;50.958;7.012;2022-10-22T14:34:09;4.83;;;1.70;;
6420;SDS011;3243;50.958;7.012;2022-10-22T14:36:37;4.67;;;1.70;;
6420;SDS011;3243;50.958;7.012;2022-10-22T14:39:04;3.43;;;2.50;;
6420;SDS011;3243;50.958;7.012;2022-10-22T14:41:30;4.90;;;2.00;;
6420;SDS011;3243;50.958;7.012;2022-10-22T14:43:57;4.33;;;1.90;;
6420;SDS011;3243;50.958;7.012;2022-10-22T14:46:25;4.73;;;1.90;;
6420;SDS011;3243;50.958;7.012;2022-10-22T14:48:51;5.93;;;2.10;;
6420;SDS011;3243;50.958;7.012;2022-10-22T14:51:19;4.07;;;2.00;;
6420;SDS011;3243;50.958;7.012;2022-10-22T14:53:46;3.73;;;2.50;;
6420;SDS011;3243;50.958;7.012;2022-10-22T14:56:14;5.67;;;2.10;;
6420;SDS011;3243;50.958;7.012;2022-10-22T14:58:43;6.00;;;2.63;;
6420;SDS011;3243;50.958;7.012;2022-10-22T15:01:10;4.80;;;2.33;;
6420;SDS011;3243;50.958;7.012;2022-10-22T15:03:37;7.50;;;2.10;;
6420;SDS011;3243;50.958;7.012;2022-10-22T15:06:04;6.87;;;2.57;;
6420;SDS011;3243;50.958;7.012;2022-10-22T15:08:32;4.03;;;2.10;;
6420;SDS011;3243;50.958;7.012;2022-10-22T15:10:59;2.53;;;1.80;;
6420;SDS011;3243;50.958;7.012;2022-10-22T15:13:27;4.37;;;1.83;;
6420;SDS011;3243;50.958;7.012;2022-10-22T15:15:55;6.70;;;1.90;;
6420;SDS011;3243;50.958;7.012;2022-10-22T15:18:22;3.07;;;1.57;;
6420;SDS011;3243;50.958;7.012;2022-10-22T15:23:29;3.70;;;2.07;;
6420;SDS011;3243;50.958;7.012;2022-10-22T15:25:56;4.20;;;2.00;;
6420;SDS011;3243;50.958;7.012;2022-10-22T15:28:23;4.73;;;2.23;;
6420;SDS011;3243;50.958;7.012;2022-10-22T15:30:54;7.13;;;3.40;;
6420;SDS011;3243;50.958;7.012;2022-10-22T15:33:23;14.07;;;7.50;;
6420;SDS011;3243;50.958;7.012;2022-10-22T15:35:49;5.87;;;3.13;;
6420;SDS011;3243;50.958;7.012;2022-10-22T15:38:16;18.20;;;7.57;;
6420;SDS011;3243;50.958;7.012;2022-10-22T15:40:43;8.37;;;3.47;;
6420;SDS011;3243;50.958;7.012;2022-10-22T15:43:10;13.50;;;6.30;;
6420;SDS011;3243;50.958;7.012;2022-10-22T15:45:38;5.43;;;2.37;;
6420;SDS011;3243;50.958;7.012;2022-10-22T15:48:05;9.93;;;4.73;;
6420;SDS011;3243;50.958;7.012;2022-10-22T15:50:33;4.33;;;2.30;;
6420;SDS011;3243;50.958;7.012;2022-10-22T15:53:03;4.77;;;2.30;;
6420;SDS011;3243;50.958;7.012;2022-10-22T15:55:30;7.43;;;2.80;;
6420;SDS011;3243;50.958;7.012;2022-10-22T15:57:57;5.53;;;2.97;;
6420;SDS011;3243;50.958;7.012;2022-10-22T16:00:28;6.73;;;3.00;;
6420;SDS011;3243;50.958;7.012;2022-10-22T16:02:55;7.87;;;3.00;;
6420;SDS011;3243;50.958;7.012;2022-10-22T16:05:22;7.83;;;3.30;;
6420;SDS011;3243;50.958;7.012;2022-10-22T16:07:48;5.50;;;3.10;;
6420;SDS011;3243;50.958;7.012;2022-10-22T16:10:16;7.87;;;3.63;;
6420;SDS011;3243;50.958;7.012;2022-10-22T16:12:43;7.07;;;3.60;;
6420;SDS011;3243;50.958;7.012;2022-10-22T16:15:10;9.60;;;3.27;;
6420;SDS011;3243;50.958;7.012;2022-10-22T16:17:36;6.43;;;3.07;;
6420;SDS011;3243;50.958;7.012;2022-10-22T16:20:03;6.40;;;3.70;;
6420;SDS011;3243;50.958;7.012;2022-10-22T16:22:30;8.03;;;3.50;;
6420;SDS011;3243;50.958;7.012;2022-10-22T16:24:58;8.83;;;3.97;;
6420;SDS011;3243;50.958;7.012;2022-10-22T16:27:25;8.00;;;4.10;;
6420;SDS011;3243;50.958;7.012;2022-10-22T16:29:51;6.53;;;3.43;;
6420;SDS011;3243;50.958;7.012;2022-10-22T16:32:18;9.37;;;4.57;;
6420;SDS011;3243;50.958;7.012;2022-10-22T16:34:45;9.97;;;3.83;;
6420;SDS011;3243;50.958;7.012;2022-10-22T16:37:11;7.73;;;4.20;;
6420;SDS011;3243;50.958;7.012;2022-10-22T16:39:38;7.67;;;3.97;;
6420;SDS011;3243;50.958;7.012;2022-10-22T16:42:05;9.10;;;4.40;;
6420;SDS011;3243;50.958;7.012;2022-10-22T16:44:31;9.70;;;4.00;;
6420;SDS011;3243;50.958;7.012;2022-10-22T16:46:58;10.20;;;3.90;;
6420;SDS011;3243;50.958;7.012;2022-10-22T16:49:26;9.60;;;4.40;;
6420;SDS011;3243;50.958;7.012;2022-10-22T16:51:52;10.13;;;4.10;;
6420;SDS011;3243;50.958;7.012;2022-10-22T16:54:19;11.50;;;4.37;;
6420;SDS011;3243;50.958;7.012;2022-10-22T16:56:47;6.30;;;4.10;;
6420;SDS011;3243;50.958;7.012;2022-10-22T16:59:13;10.80;;;4.30;;
6420;SDS011;3243;50.958;7.012;2022-10-22T17:01:40;10.70;;;4.00;;
6420;SDS011;3243;50.958;7.012;2022-10-22T17:04:07;8.10;;;4.20;;
6420;SDS011;3243;50.958;7.012;2022-10-22T17:06:34;11.77;;;4.83;;
6420;SDS011;3243;50.958;7.012;2022-10-22T17:09:01;12.37;;;4.67;;
6420;SDS011;3243;50.958;7.012;2022-10-22T17:11:28;7.90;;;4.30;;
6420;SDS011;3243;50.958;7.012;2022-10-22T17:14:00;6.87;;;4.20;;
6420;SDS011;3243;50.958;7.012;2022-10-22T17:16:28;8.43;;;3.73;;
6420;SDS011;3243;50.958;7.012;2022-10-22T17:18:55;10.60;;;4.30;;
6420;SDS011;3243;50.958;7.012;2022-10-22T17:21:23;9.10;;;4.57;;
6420;SDS011;3243;50.958;7.012;2022-10-22T17:23:54;11.17;;;4.27;;
6420;SDS011;3243;50.958;7.012;2022-10-22T17:26:22;11.30;;;4.03;;
6420;SDS011;3243;50.958;7.012;2022-10-22T17:28:51;8.87;;;3.40;;
6420;SDS011;3243;50.958;7.012;2022-10-22T17:31:19;7.87;;;3.80;;
6420;SDS011;3243;50.958;7.012;2022-10-22T17:33:49;8.03;;;4.00;;
6420;SDS011;3243;50.958;7.012;2022-10-22T17:36:17;7.37;;;3.90;;
6420;SDS011;3243;50.958;7.012;2022-10-22T17:38:47;9.63;;;3.57;;